createdAt,value
2024-02-13T00:00:55.350Z,8.027648926
2024-02-13T00:01:56.591Z,8.057861328
2024-02-13T00:02:58.309Z,8.08807373
2024-02-13T00:03:59.943Z,8.08807373
2024-02-13T00:05:01.566Z,8.057861328
2024-02-13T00:06:03.358Z,8.027648926
2024-02-13T00:07:04.508Z,8.027648926
2024-02-13T00:08:05.863Z,8.027648926
2024-02-13T00:09:07.515Z,8.017578125
2024-02-13T00:10:09.138Z,7.997436523
2024-02-13T00:11:42.337Z,7.997436523
2024-02-13T00:12:43.666Z,7.997436523
2024-02-13T00:13:45.240Z,8.017578125
2024-02-13T00:14:47.489Z,8.027648926
2024-02-13T00:15:48.399Z,8.027648926
2024-02-13T00:16:50.424Z,8.027648926
2024-02-13T00:17:52.365Z,8.017578125
2024-02-13T00:18:53.612Z,8.017578125
2024-02-13T00:19:55.007Z,8.027648926
2024-02-13T00:20:56.521Z,8.037719727
2024-02-13T00:21:58.093Z,8.037719727
2024-02-13T00:22:59.633Z,8.037719727
2024-02-13T00:24:02.611Z,8.037719727
2024-02-13T00:25:04.013Z,8.067932129
2024-02-13T00:26:05.728Z,8.08807373
2024-02-13T00:27:07.418Z,8.118286133
2024-02-13T00:28:09.281Z,8.138427734
2024-02-13T00:29:41.898Z,8.128356934
2024-02-13T00:30:43.112Z,8.138427734
2024-02-13T00:31:44.398Z,8.118286133
2024-02-13T00:32:45.810Z,8.08807373
2024-02-13T00:33:46.896Z,8.057861328
2024-02-13T00:34:47.931Z,8.08807373
2024-02-13T00:35:49.081Z,8.098144531
2024-02-13T00:36:50.490Z,8.067932129
2024-02-13T00:37:51.882Z,8.08807373
2024-02-13T00:38:53.308Z,8.057861328
2024-02-13T00:39:54.712Z,8.037719727
2024-02-13T00:40:56.611Z,8.027648926
2024-02-13T00:41:57.813Z,8.027648926
2024-02-13T00:42:59.039Z,7.997436523
2024-02-13T00:44:00.370Z,7.997436523
2024-02-13T00:45:01.909Z,7.987365723
2024-02-13T00:46:02.994Z,7.94708252
2024-02-13T00:47:04.189Z,7.937011719
2024-02-13T00:48:05.536Z,7.95715332
2024-02-13T00:49:06.306Z,7.94708252
2024-02-13T00:50:07.683Z,7.916870117
2024-02-13T00:51:08.767Z,7.906799316
2024-02-13T00:52:10.438Z,7.856445313
2024-02-13T00:53:42.379Z,7.816162109
2024-02-13T00:54:43.736Z,7.806091309
2024-02-13T00:55:44.896Z,7.806091309
2024-02-13T00:56:46.346Z,7.806091309
2024-02-13T00:57:47.561Z,7.765808105
2024-02-13T00:58:48.746Z,7.725524902
2024-02-13T00:59:50.119Z,7.6953125
2024-02-13T01:00:51.287Z,7.705383301
2024-02-13T01:01:52.534Z,7.705383301
2024-02-13T01:02:54.173Z,7.725524902
2024-02-13T01:03:55.391Z,7.735595703
2024-02-13T01:04:56.416Z,7.755737305
2024-02-13T01:05:57.773Z,7.6953125
2024-02-13T01:06:58.903Z,7.6953125
2024-02-13T01:08:00.300Z,7.735595703
2024-02-13T01:09:01.836Z,7.725524902
2024-02-13T01:10:03.016Z,7.755737305
2024-02-13T01:11:04.205Z,7.755737305
2024-02-13T01:12:05.363Z,7.785949707
2024-02-13T01:13:06.711Z,7.765808105
2024-02-13T01:14:07.844Z,7.755737305
2024-02-13T01:15:09.191Z,7.765808105
2024-02-13T01:16:41.619Z,7.765808105
2024-02-13T01:17:42.828Z,7.725524902
2024-02-13T01:18:44.072Z,7.725524902
2024-02-13T01:19:45.176Z,7.655029297
2024-02-13T01:20:46.333Z,7.624816895
2024-02-13T01:21:47.561Z,7.655029297
2024-02-13T01:22:48.710Z,7.634887695
2024-02-13T01:23:50.150Z,7.665100098
2024-02-13T01:24:51.251Z,7.685241699
2024-02-13T01:25:52.539Z,7.725524902
2024-02-13T01:26:53.689Z,7.6953125
2024-02-13T01:27:54.783Z,7.6953125
2024-02-13T01:28:56.125Z,7.685241699
2024-02-13T01:29:56.561Z,7.6953125
2024-02-13T01:30:57.094Z,7.705383301
2024-02-13T01:31:57.793Z,7.725524902
2024-02-13T01:32:58.622Z,7.665100098
2024-02-13T01:33:59.254Z,7.665100098
2024-02-13T01:34:59.862Z,7.634887695
2024-02-13T01:36:00.541Z,7.584533691
2024-02-13T01:37:01.197Z,7.584533691
2024-02-13T01:38:01.881Z,7.604675293
2024-02-13T01:39:02.559Z,7.574462891
2024-02-13T01:40:03.295Z,7.574462891
2024-02-13T01:41:04.009Z,7.574462891
2024-02-13T01:42:04.774Z,7.554321289
2024-02-13T01:43:05.588Z,7.574462891
2024-02-13T01:44:06.501Z,7.554321289
2024-02-13T01:45:07.202Z,7.554321289
2024-02-13T01:46:07.925Z,7.524108887
2024-02-13T01:47:40.440Z,7.604675293
2024-02-13T01:49:41.173Z,7.624816895
2024-02-13T01:50:42.051Z,7.634887695
2024-02-13T01:51:42.724Z,7.634887695
2024-02-13T01:52:43.792Z,7.624816895
2024-02-13T01:53:44.690Z,7.604675293
2024-02-13T01:54:45.448Z,7.554321289
2024-02-13T01:55:46.201Z,7.604675293
2024-02-13T01:56:47.000Z,7.604675293
2024-02-13T01:57:47.693Z,7.634887695
2024-02-13T01:58:48.428Z,7.655029297
2024-02-13T01:59:49.319Z,7.685241699
2024-02-13T02:00:50.215Z,7.6953125
2024-02-13T02:01:50.848Z,7.725524902
2024-02-13T02:02:51.876Z,7.725524902
2024-02-13T02:03:52.657Z,7.735595703
2024-02-13T02:04:53.422Z,7.765808105
2024-02-13T02:05:54.168Z,7.785949707
2024-02-13T02:06:55.120Z,7.765808105
2024-02-13T02:07:55.901Z,7.785949707
2024-02-13T02:08:56.978Z,7.806091309
2024-02-13T02:09:57.703Z,7.785949707
2024-02-13T02:10:58.504Z,7.765808105
2024-02-13T02:11:59.439Z,7.765808105
2024-02-13T02:13:00.262Z,7.785949707
2024-02-13T02:14:01.080Z,7.785949707
2024-02-13T02:15:01.894Z,7.806091309
2024-02-13T02:16:02.742Z,7.765808105
2024-02-13T02:17:03.489Z,7.806091309
2024-02-13T02:18:04.378Z,7.806091309
2024-02-13T02:19:05.268Z,7.816162109
2024-02-13T02:20:05.591Z,7.806091309
2024-02-13T02:21:06.474Z,7.785949707
2024-02-13T02:22:07.209Z,7.806091309
2024-02-13T02:23:40.198Z,7.765808105
2024-02-13T02:25:40.301Z,7.735595703
2024-02-13T02:26:41.027Z,7.755737305
2024-02-13T02:27:41.825Z,7.765808105
2024-02-13T02:28:42.473Z,7.816162109
2024-02-13T02:29:43.259Z,7.836303711
2024-02-13T02:30:44.148Z,7.806091309
2024-02-13T02:31:44.969Z,7.785949707
2024-02-13T02:32:45.929Z,7.765808105
2024-02-13T02:33:46.790Z,7.785949707
2024-02-13T02:34:47.621Z,7.765808105
2024-02-13T02:35:48.453Z,7.755737305
2024-02-13T02:36:49.086Z,7.735595703
2024-02-13T02:37:50.017Z,7.755737305
2024-02-13T02:38:50.919Z,7.725524902
2024-02-13T02:39:51.697Z,7.725524902
2024-02-13T02:40:52.451Z,7.6953125
2024-02-13T02:41:53.228Z,7.705383301
2024-02-13T02:42:54.187Z,7.705383301
2024-02-13T02:43:54.980Z,7.705383301
2024-02-13T02:44:55.748Z,7.6953125
2024-02-13T02:45:56.359Z,7.705383301
2024-02-13T02:46:57.159Z,7.705383301
2024-02-13T02:47:58.085Z,7.665100098
2024-02-13T02:48:58.858Z,7.655029297
2024-02-13T02:49:59.675Z,7.655029297
2024-02-13T02:51:00.537Z,7.624816895
2024-02-13T02:52:01.113Z,7.604675293
2024-02-13T02:53:01.927Z,7.624816895
2024-02-13T02:54:02.760Z,7.604675293
2024-02-13T02:55:03.545Z,7.584533691
2024-02-13T02:56:04.446Z,7.584533691
2024-02-13T02:57:05.170Z,7.584533691
2024-02-13T02:58:05.873Z,7.604675293
2024-02-13T02:59:06.649Z,7.624816895
2024-02-13T03:00:39.706Z,7.574462891
2024-02-13T03:02:39.692Z,7.604675293
2024-02-13T03:03:40.512Z,7.584533691
2024-02-13T03:04:41.232Z,7.634887695
2024-02-13T03:05:42.161Z,7.634887695
2024-02-13T03:06:42.740Z,7.634887695
2024-02-13T03:07:43.513Z,7.655029297
2024-02-13T03:08:44.248Z,7.655029297
2024-02-13T03:09:44.889Z,7.655029297
2024-02-13T03:10:45.632Z,7.655029297
2024-02-13T03:11:46.429Z,7.634887695
2024-02-13T03:12:47.167Z,7.655029297
2024-02-13T03:13:47.894Z,7.655029297
2024-02-13T03:14:49.367Z,7.634887695
2024-02-13T03:15:50.123Z,7.665100098
2024-02-13T03:16:50.874Z,7.705383301
2024-02-13T03:17:51.846Z,7.705383301
2024-02-13T03:18:52.615Z,7.6953125
2024-02-13T03:19:53.253Z,7.685241699
2024-02-13T03:20:54.108Z,7.6953125
2024-02-13T03:21:54.706Z,7.655029297
2024-02-13T03:22:55.575Z,7.665100098
2024-02-13T03:23:56.466Z,7.655029297
2024-02-13T03:24:57.239Z,7.655029297
2024-02-13T03:25:57.956Z,7.665100098
2024-02-13T03:26:58.787Z,7.665100098
2024-02-13T03:27:59.713Z,7.685241699
2024-02-13T03:29:00.488Z,7.6953125
2024-02-13T03:30:01.301Z,7.665100098
2024-02-13T03:31:02.046Z,7.655029297
2024-02-13T03:32:02.796Z,7.624816895
2024-02-13T03:33:03.767Z,7.584533691
2024-02-13T03:34:04.700Z,7.554321289
2024-02-13T03:35:05.353Z,7.514038086
2024-02-13T03:36:06.057Z,7.514038086
2024-02-13T03:37:06.834Z,7.503967285
2024-02-13T03:38:38.439Z,7.524108887
2024-02-13T03:39:39.197Z,7.503967285
2024-02-13T03:40:40.225Z,7.453613281
2024-02-13T03:41:41.088Z,7.423400879
2024-02-13T03:42:41.791Z,7.393188477
2024-02-13T03:43:42.554Z,7.413330078
2024-02-13T03:44:43.388Z,7.413330078
2024-02-13T03:45:44.102Z,7.393188477
2024-02-13T03:46:44.877Z,7.413330078
2024-02-13T03:47:47.249Z,7.423400879
2024-02-13T03:49:48.736Z,7.423400879
2024-02-13T03:51:48.305Z,7.423400879
2024-02-13T03:52:49.020Z,7.413330078
2024-02-13T03:53:49.884Z,7.393188477
2024-02-13T03:54:50.827Z,7.423400879
2024-02-13T03:55:51.574Z,7.423400879
2024-02-13T03:56:52.375Z,7.393188477
2024-02-13T03:57:53.058Z,7.362976074
2024-02-13T03:58:53.891Z,7.342834473
2024-02-13T03:59:54.688Z,7.30255127
2024-02-13T04:00:55.399Z,7.30255127
2024-02-13T04:01:56.135Z,7.262268066
2024-02-13T04:02:57.008Z,7.242126465
2024-02-13T04:03:58.042Z,7.272338867
2024-02-13T04:04:59.013Z,7.262268066
2024-02-13T04:05:59.972Z,7.272338867
2024-02-13T04:07:00.648Z,7.242126465
2024-02-13T04:08:01.538Z,7.292480469
2024-02-13T04:09:02.398Z,7.292480469
2024-02-13T04:10:03.206Z,7.292480469
2024-02-13T04:11:04.179Z,7.292480469
2024-02-13T04:12:04.927Z,7.292480469
2024-02-13T04:13:39.443Z,7.30255127
2024-02-13T04:14:40.177Z,7.292480469
2024-02-13T04:16:39.078Z,7.272338867
2024-02-13T04:17:40.137Z,7.262268066
2024-02-13T04:18:41.081Z,7.272338867
2024-02-13T04:19:41.961Z,7.292480469
2024-02-13T04:20:42.657Z,7.292480469
2024-02-13T04:21:43.591Z,7.272338867
2024-02-13T04:22:44.389Z,7.211914063
2024-02-13T04:23:45.335Z,7.18170166
2024-02-13T04:24:46.133Z,7.141418457
2024-02-13T04:25:46.977Z,7.121276855
2024-02-13T04:26:47.761Z,7.141418457
2024-02-13T04:27:48.706Z,7.091064453
2024-02-13T04:28:49.833Z,7.111206055
2024-02-13T04:29:51.036Z,7.111206055
2024-02-13T04:30:51.684Z,7.111206055
2024-02-13T04:31:52.546Z,7.121276855
2024-02-13T04:32:53.622Z,7.111206055
2024-02-13T04:33:54.210Z,7.121276855
2024-02-13T04:34:54.876Z,7.080993652
2024-02-13T04:35:55.586Z,7.091064453
2024-02-13T04:36:56.439Z,7.091064453
2024-02-13T04:37:57.280Z,7.111206055
2024-02-13T04:38:58.152Z,7.080993652
2024-02-13T04:39:59.077Z,7.080993652
2024-02-13T04:40:59.910Z,7.070922852
2024-02-13T04:42:00.912Z,7.05078125
2024-02-13T04:43:01.665Z,7.040710449
2024-02-13T04:44:02.417Z,7.080993652
2024-02-13T04:45:03.257Z,7.070922852
2024-02-13T04:46:04.130Z,7.05078125
2024-02-13T04:47:04.972Z,7.080993652
2024-02-13T04:48:38.882Z,7.141418457
2024-02-13T04:49:39.396Z,7.080993652
2024-02-13T04:51:39.003Z,7.010498047
2024-02-13T04:52:39.720Z,6.960144043
2024-02-13T04:53:40.406Z,6.909790039
2024-02-13T04:54:41.127Z,6.899719238
2024-02-13T04:55:41.966Z,6.889648438
2024-02-13T04:56:42.744Z,6.909790039
2024-02-13T04:57:43.374Z,6.889648438
2024-02-13T04:58:44.053Z,6.829223633
2024-02-13T04:59:44.931Z,6.809082031
2024-02-13T05:00:45.689Z,6.778869629
2024-02-13T05:01:46.489Z,6.758728027
2024-02-13T05:02:47.214Z,6.708374023
2024-02-13T05:03:48.102Z,6.647949219
2024-02-13T05:04:48.814Z,6.637878418
2024-02-13T05:05:49.945Z,6.627807617
2024-02-13T05:06:50.712Z,6.627807617
2024-02-13T05:07:51.343Z,6.627807617
2024-02-13T05:08:52.223Z,6.647949219
2024-02-13T05:09:52.877Z,6.647949219
2024-02-13T05:10:53.633Z,6.647949219
2024-02-13T05:11:54.518Z,6.728515625
2024-02-13T05:12:55.288Z,6.728515625
2024-02-13T05:13:59.011Z,6.748657227
2024-02-13T05:14:57.118Z,6.778869629
2024-02-13T05:15:58.163Z,6.78894043
2024-02-13T05:16:58.918Z,6.809082031
2024-02-13T05:17:59.738Z,6.809082031
2024-02-13T05:19:00.631Z,6.819152832
2024-02-13T05:20:01.036Z,6.889648438
2024-02-13T05:21:01.943Z,6.899719238
2024-02-13T05:22:02.722Z,6.899719238
2024-02-13T05:23:03.742Z,6.909790039
2024-02-13T05:24:04.684Z,6.889648438
2024-02-13T05:25:05.421Z,6.889648438
2024-02-13T05:26:38.865Z,6.869506836
2024-02-13T05:28:38.824Z,6.859436035
2024-02-13T05:29:39.529Z,6.899719238
2024-02-13T05:30:40.276Z,6.899719238
2024-02-13T05:31:41.097Z,6.909790039
2024-02-13T05:32:41.934Z,6.960144043
2024-02-13T05:33:42.761Z,6.960144043
2024-02-13T05:34:43.464Z,6.970214844
2024-02-13T05:35:44.389Z,6.990356445
2024-02-13T05:36:45.119Z,7.000427246
2024-02-13T05:37:45.909Z,7.010498047
2024-02-13T05:38:46.848Z,7.040710449
2024-02-13T05:39:47.421Z,7.05078125
2024-02-13T05:40:48.375Z,7.080993652
2024-02-13T05:41:49.296Z,7.111206055
2024-02-13T05:42:50.262Z,7.141418457
2024-02-13T05:43:51.067Z,7.141418457
2024-02-13T05:44:52.191Z,7.080993652
2024-02-13T05:45:53.031Z,6.990356445
2024-02-13T05:46:53.760Z,6.859436035
2024-02-13T05:47:54.657Z,6.859436035
2024-02-13T05:48:55.344Z,6.778869629
2024-02-13T05:49:56.160Z,6.728515625
2024-02-13T05:50:57.069Z,6.718444824
2024-02-13T05:51:57.948Z,6.708374023
2024-02-13T05:52:58.709Z,6.637878418
2024-02-13T05:53:59.974Z,6.597595215
2024-02-13T05:55:00.671Z,6.577453613
2024-02-13T05:56:01.540Z,6.577453613
2024-02-13T05:57:02.266Z,6.567382813
2024-02-13T05:58:02.988Z,6.627807617
2024-02-13T05:59:03.685Z,6.647949219
2024-02-13T06:00:04.688Z,6.718444824
2024-02-13T06:01:37.887Z,6.748657227
2024-02-13T06:02:38.501Z,6.819152832
2024-02-13T06:04:38.405Z,6.78894043
2024-02-13T06:05:39.213Z,6.778869629
2024-02-13T06:06:39.978Z,6.758728027
2024-02-13T06:07:40.609Z,6.708374023
2024-02-13T06:08:41.635Z,6.627807617
2024-02-13T06:09:42.246Z,6.567382813
2024-02-13T06:10:43.004Z,6.53717041
2024-02-13T06:11:43.785Z,6.476745605
2024-02-13T06:12:44.482Z,6.456604004
2024-02-13T06:13:45.098Z,6.456604004
2024-02-13T06:14:45.945Z,6.456604004
2024-02-13T06:15:46.745Z,6.476745605
2024-02-13T06:16:47.436Z,6.506958008
2024-02-13T06:17:48.369Z,6.506958008
2024-02-13T06:18:49.510Z,6.567382813
2024-02-13T06:19:50.103Z,6.547241211
2024-02-13T06:20:51.059Z,6.567382813
2024-02-13T06:21:51.719Z,6.577453613
2024-02-13T06:22:52.457Z,6.567382813
2024-02-13T06:23:53.340Z,6.53717041
2024-02-13T06:24:54.013Z,6.567382813
2024-02-13T06:25:54.822Z,6.577453613
2024-02-13T06:26:57.114Z,6.547241211
2024-02-13T06:27:56.996Z,6.527099609
2024-02-13T06:28:58.111Z,6.547241211
2024-02-13T06:29:58.982Z,6.547241211
2024-02-13T06:30:59.977Z,6.567382813
2024-02-13T06:32:03.902Z,6.597595215
2024-02-13T06:34:02.245Z,6.597595215
2024-02-13T06:35:02.954Z,6.607666016
2024-02-13T06:36:38.125Z,6.647949219
2024-02-13T06:37:39.005Z,6.647949219
2024-02-13T06:38:39.906Z,6.637878418
2024-02-13T06:40:37.752Z,6.597595215
2024-02-13T06:41:38.725Z,6.567382813
2024-02-13T06:42:39.532Z,6.567382813
2024-02-13T06:43:40.231Z,6.53717041
2024-02-13T06:44:41.089Z,6.496887207
2024-02-13T06:45:41.967Z,6.527099609
2024-02-13T06:46:42.749Z,6.53717041
2024-02-13T06:47:43.653Z,6.506958008
2024-02-13T06:48:44.537Z,6.506958008
2024-02-13T06:49:45.206Z,6.506958008
2024-02-13T06:50:46.116Z,6.476745605
2024-02-13T06:51:46.883Z,6.476745605
2024-02-13T06:52:47.700Z,6.456604004
2024-02-13T06:53:48.650Z,6.446533203
2024-02-13T06:54:50.758Z,6.446533203
2024-02-13T06:55:50.666Z,6.456604004
2024-02-13T06:56:51.591Z,6.446533203
2024-02-13T06:57:52.634Z,6.396179199
2024-02-13T06:58:53.329Z,6.355895996
2024-02-13T06:59:54.366Z,6.396179199
2024-02-13T07:00:55.148Z,6.396179199
2024-02-13T07:01:55.949Z,6.386108398
2024-02-13T07:02:56.920Z,6.355895996
2024-02-13T07:03:57.641Z,6.315612793
2024-02-13T07:04:58.426Z,6.265258789
2024-02-13T07:05:59.302Z,6.27532959
2024-02-13T07:07:09.054Z,6.27532959
2024-02-13T07:08:01.229Z,6.265258789
2024-02-13T07:09:02.052Z,6.325683594
2024-02-13T07:10:37.461Z,6.345825195
2024-02-13T07:11:38.182Z,6.386108398
2024-02-13T07:12:39.034Z,6.386108398
2024-02-13T07:14:37.617Z,6.396179199
2024-02-13T07:15:38.670Z,6.376037598
2024-02-13T07:16:41.093Z,6.355895996
2024-02-13T07:18:41.188Z,6.345825195
2024-02-13T07:19:41.969Z,6.27532959
2024-02-13T07:20:42.786Z,6.27532959
2024-02-13T07:21:43.588Z,6.245117188
2024-02-13T07:22:44.380Z,6.265258789
2024-02-13T07:23:45.177Z,6.265258789
2024-02-13T07:24:46.051Z,6.27532959
2024-02-13T07:25:47.100Z,6.27532959
2024-02-13T07:26:48.008Z,6.265258789
2024-02-13T07:27:49.009Z,6.265258789
2024-02-13T07:28:49.964Z,6.235046387
2024-02-13T07:29:50.962Z,6.245117188
2024-02-13T07:30:51.938Z,6.27532959
2024-02-13T07:31:52.874Z,6.315612793
2024-02-13T07:32:53.796Z,6.315612793
2024-02-13T07:33:54.621Z,6.345825195
2024-02-13T07:34:55.666Z,6.386108398
2024-02-13T07:35:56.899Z,6.416320801
2024-02-13T07:36:57.840Z,6.446533203
2024-02-13T07:37:58.642Z,6.446533203
2024-02-13T07:38:59.520Z,6.456604004
2024-02-13T07:40:00.308Z,6.496887207
2024-02-13T07:41:01.183Z,6.547241211
2024-02-13T07:42:02.071Z,6.607666016
2024-02-13T07:43:37.375Z,6.577453613
2024-02-13T07:44:38.221Z,6.637878418
2024-02-13T07:45:39.210Z,6.708374023
2024-02-13T07:47:37.863Z,6.708374023
2024-02-13T07:48:38.714Z,6.728515625
2024-02-13T07:49:39.697Z,6.748657227
2024-02-13T07:50:40.556Z,6.758728027
2024-02-13T07:51:41.704Z,6.819152832
2024-02-13T07:52:42.581Z,6.829223633
2024-02-13T07:53:43.581Z,6.859436035
2024-02-13T07:54:44.134Z,6.889648438
2024-02-13T07:55:44.850Z,6.899719238
2024-02-13T07:56:45.922Z,6.909790039
2024-02-13T07:57:46.785Z,6.899719238
2024-02-13T07:58:47.512Z,6.889648438
2024-02-13T07:59:48.546Z,6.899719238
2024-02-13T08:00:49.131Z,6.929931641
2024-02-13T08:01:50.257Z,6.909790039
2024-02-13T08:02:51.191Z,6.909790039
2024-02-13T08:03:52.177Z,6.940002441
2024-02-13T08:04:53.446Z,6.960144043
2024-02-13T08:05:54.157Z,6.960144043
2024-02-13T08:06:54.891Z,6.960144043
2024-02-13T08:07:55.731Z,6.960144043
2024-02-13T08:08:56.696Z,6.929931641
2024-02-13T08:09:57.485Z,6.899719238
2024-02-13T08:10:58.457Z,6.859436035
2024-02-13T08:11:59.381Z,6.819152832
2024-02-13T08:13:00.258Z,6.78894043
2024-02-13T08:14:01.160Z,6.809082031
2024-02-13T08:15:02.297Z,6.859436035
2024-02-13T08:16:37.574Z,6.869506836
2024-02-13T08:17:37.908Z,6.869506836
2024-02-13T08:19:36.950Z,6.829223633
2024-02-13T08:20:37.843Z,6.869506836
2024-02-13T08:21:38.617Z,6.889648438
2024-02-13T08:22:39.446Z,6.909790039
2024-02-13T08:23:40.436Z,6.909790039
2024-02-13T08:24:41.334Z,6.929931641
2024-02-13T08:25:42.272Z,6.929931641
2024-02-13T08:26:43.590Z,6.929931641
2024-02-13T08:27:44.625Z,6.960144043
2024-02-13T08:28:46.042Z,6.970214844
2024-02-13T08:29:47.170Z,7.000427246
2024-02-13T08:30:47.963Z,7.040710449
2024-02-13T08:31:48.914Z,7.05078125
2024-02-13T08:32:50.048Z,7.070922852
2024-02-13T08:33:51.053Z,7.091064453
2024-02-13T08:34:51.766Z,7.121276855
2024-02-13T08:35:52.618Z,7.141418457
2024-02-13T08:36:53.260Z,7.121276855
2024-02-13T08:37:56.750Z,7.141418457
2024-02-13T08:38:54.777Z,7.151489258
2024-02-13T08:39:55.439Z,7.18170166
2024-02-13T08:40:56.197Z,7.18170166
2024-02-13T08:41:57.661Z,7.18170166
2024-02-13T08:42:58.404Z,7.191772461
2024-02-13T08:43:59.028Z,7.18170166
2024-02-13T08:44:59.803Z,7.191772461
2024-02-13T08:46:00.690Z,7.232055664
2024-02-13T08:47:01.487Z,7.272338867
2024-02-13T08:48:02.511Z,7.322692871
2024-02-13T08:49:36.281Z,7.322692871
2024-02-13T08:50:36.918Z,7.322692871
2024-02-13T08:51:38.533Z,7.362976074
2024-02-13T08:53:36.900Z,7.393188477
2024-02-13T08:54:37.698Z,7.423400879
2024-02-13T08:55:38.462Z,7.423400879
2024-02-13T08:56:39.234Z,7.453613281
2024-02-13T08:57:39.933Z,7.483825684
2024-02-13T08:58:40.823Z,7.473754883
2024-02-13T08:59:41.676Z,7.483825684
2024-02-13T09:00:42.521Z,7.514038086
2024-02-13T09:01:43.326Z,7.503967285
2024-02-13T09:02:44.006Z,7.503967285
2024-02-13T09:03:44.714Z,7.503967285
2024-02-13T09:04:45.544Z,7.514038086
2024-02-13T09:05:46.408Z,7.544250488
2024-02-13T09:06:47.224Z,7.554321289
2024-02-13T09:07:47.948Z,7.554321289
2024-02-13T09:08:48.722Z,7.634887695
2024-02-13T09:09:49.306Z,7.604675293
2024-02-13T09:10:50.264Z,7.604675293
2024-02-13T09:11:51.003Z,7.634887695
2024-02-13T09:12:51.773Z,7.655029297
2024-02-13T09:13:52.762Z,7.634887695
2024-02-13T09:14:53.841Z,7.655029297
2024-02-13T09:15:54.446Z,7.655029297
2024-02-13T09:16:55.275Z,7.665100098
2024-02-13T09:17:56.156Z,7.685241699
2024-02-13T09:18:58.008Z,7.735595703
2024-02-13T09:19:57.897Z,7.765808105
2024-02-13T09:20:58.759Z,7.785949707
2024-02-13T09:21:59.404Z,7.816162109
2024-02-13T09:23:00.162Z,7.846374512
2024-02-13T09:24:00.835Z,7.876586914
2024-02-13T09:25:01.536Z,7.916870117
2024-02-13T09:26:02.501Z,7.916870117
2024-02-13T09:27:03.566Z,7.906799316
2024-02-13T09:28:04.258Z,7.916870117
2024-02-13T09:29:35.879Z,7.937011719
2024-02-13T09:30:36.735Z,7.937011719
2024-02-13T09:31:37.602Z,7.937011719
2024-02-13T09:32:38.539Z,7.937011719
2024-02-13T09:33:39.232Z,7.937011719
2024-02-13T09:34:39.873Z,7.95715332
2024-02-13T09:35:40.538Z,7.997436523
2024-02-13T09:36:41.371Z,7.997436523
2024-02-13T09:37:44.464Z,8.027648926
2024-02-13T09:38:43.886Z,8.027648926
2024-02-13T09:39:44.495Z,8.057861328
2024-02-13T09:40:45.399Z,8.057861328
2024-02-13T09:41:46.531Z,8.067932129
2024-02-13T09:42:47.546Z,8.08807373
2024-02-13T09:43:51.254Z,8.098144531
2024-02-13T09:44:49.992Z,8.168640137
2024-02-13T09:45:50.763Z,8.168640137
2024-02-13T09:46:51.906Z,8.198852539
2024-02-13T09:47:53.188Z,8.20892334
2024-02-13T09:48:54.374Z,8.20892334
2024-02-13T09:49:55.150Z,8.20892334
2024-02-13T09:50:56.048Z,8.218994141
2024-02-13T09:51:57.378Z,8.218994141
2024-02-13T09:52:58.160Z,8.239135742
2024-02-13T09:53:59.206Z,8.239135742
2024-02-13T09:55:00.217Z,8.269348145
2024-02-13T09:56:00.965Z,8.279418945
2024-02-13T09:57:01.902Z,8.289489746
2024-02-13T09:58:02.754Z,8.319702148
2024-02-13T09:59:35.967Z,8.400268555
2024-02-13T10:01:35.982Z,8.420410156
2024-02-13T10:02:36.770Z,8.460693359
2024-02-13T10:03:37.577Z,8.47076416
2024-02-13T10:04:38.201Z,8.460693359
2024-02-13T10:05:39.093Z,8.490905762
2024-02-13T10:06:40.156Z,8.490905762
2024-02-13T10:07:43.053Z,8.490905762
2024-02-13T10:08:42.269Z,8.521118164
2024-02-13T10:09:42.845Z,8.551330566
2024-02-13T10:10:43.993Z,8.581542969
2024-02-13T10:11:44.930Z,8.60168457
2024-02-13T10:12:45.842Z,8.611755371
2024-02-13T10:13:48.314Z,8.611755371
2024-02-13T10:14:47.586Z,8.631896973
2024-02-13T10:15:48.464Z,8.652038574
2024-02-13T10:16:49.789Z,8.672180176
2024-02-13T10:17:50.735Z,8.672180176
2024-02-13T10:18:51.571Z,8.682250977
2024-02-13T10:19:52.470Z,8.702392578
2024-02-13T10:20:53.320Z,8.712463379
2024-02-13T10:21:54.032Z,8.712463379
2024-02-13T10:22:54.908Z,8.682250977
2024-02-13T10:23:55.866Z,8.702392578
2024-02-13T10:24:56.598Z,8.712463379
2024-02-13T10:25:57.441Z,8.73260498
2024-02-13T10:26:58.300Z,8.73260498
2024-02-13T10:27:59.172Z,8.793029785
2024-02-13T10:29:00.027Z,8.823242188
2024-02-13T10:30:01.212Z,8.85345459
2024-02-13T10:31:02.015Z,8.833312988
2024-02-13T10:32:36.237Z,8.85345459
2024-02-13T10:33:37.271Z,8.883666992
2024-02-13T10:35:36.742Z,8.883666992
2024-02-13T10:36:37.964Z,8.893737793
2024-02-13T10:37:38.478Z,8.944091797
2024-02-13T10:38:39.100Z,8.944091797
2024-02-13T10:39:39.729Z,8.964233398
2024-02-13T10:40:40.514Z,8.964233398
2024-02-13T10:41:41.823Z,8.974304199
2024-02-13T10:42:42.075Z,9.004516602
2024-02-13T10:43:43.803Z,9.014587402
2024-02-13T10:44:43.889Z,9.044799805
2024-02-13T10:45:44.556Z,9.064941406
2024-02-13T10:46:45.373Z,9.064941406
2024-02-13T10:47:46.335Z,9.075012207
2024-02-13T10:48:47.287Z,9.044799805
2024-02-13T10:49:48.008Z,9.095153809
2024-02-13T10:50:49.112Z,9.034729004
2024-02-13T10:51:50.249Z,9.034729004
2024-02-13T10:52:51.060Z,9.044799805
2024-02-13T10:53:52.075Z,9.075012207
2024-02-13T10:54:53.130Z,9.095153809
2024-02-13T10:55:54.033Z,9.095153809
2024-02-13T10:56:54.944Z,9.095153809
2024-02-13T10:57:55.940Z,9.125366211
2024-02-13T10:58:57.102Z,9.11529541
2024-02-13T10:59:57.832Z,9.155578613
2024-02-13T11:00:58.600Z,9.145507813
2024-02-13T11:01:59.818Z,9.165649414
2024-02-13T11:03:01.000Z,9.195861816
2024-02-13T11:04:01.694Z,9.216003418
2024-02-13T11:05:02.716Z,9.216003418
2024-02-13T11:06:03.424Z,9.23614502
2024-02-13T11:07:34.706Z,9.23614502
2024-02-13T11:08:35.664Z,9.226074219
2024-02-13T11:09:36.404Z,9.226074219
2024-02-13T11:10:37.367Z,9.226074219
2024-02-13T11:11:38.304Z,9.195861816
2024-02-13T11:12:39.300Z,9.185791016
2024-02-13T11:13:40.144Z,9.165649414
2024-02-13T11:14:40.955Z,9.155578613
2024-02-13T11:15:41.789Z,9.165649414
2024-02-13T11:16:42.641Z,9.145507813
2024-02-13T11:17:43.603Z,9.145507813
2024-02-13T11:18:44.452Z,9.155578613
2024-02-13T11:19:46.631Z,9.165649414
2024-02-13T11:20:46.229Z,9.145507813
2024-02-13T11:21:47.296Z,9.155578613
2024-02-13T11:22:48.174Z,9.165649414
2024-02-13T11:23:49.025Z,9.165649414
2024-02-13T11:24:50.877Z,9.165649414
2024-02-13T11:25:51.339Z,9.195861816
2024-02-13T11:26:52.185Z,9.185791016
2024-02-13T11:27:52.854Z,9.145507813
2024-02-13T11:28:53.658Z,9.145507813